createdAt,value
2018-05-06T00:00:09.085Z,14.29
2018-05-06T00:01:09.076Z,14.15
2018-05-06T00:02:09.060Z,14.25
2018-05-06T00:03:09.045Z,14.21
2018-05-06T00:04:09.045Z,14.22
2018-05-06T00:05:09.103Z,14.18
2018-05-06T00:06:09.002Z,14.24
2018-05-06T00:07:08.989Z,14.24
2018-05-06T00:08:08.978Z,14.28
2018-05-06T00:09:08.983Z,14.20
2018-05-06T00:10:08.949Z,14.20
2018-05-06T00:11:08.942Z,14.21
2018-05-06T00:12:08.922Z,14.18
2018-05-06T00:13:08.907Z,14.28
2018-05-06T00:14:08.893Z,14.22
2018-05-06T00:15:08.959Z,14.33
2018-05-06T00:16:08.864Z,14.22
2018-05-06T00:17:08.853Z,14.24
2018-05-06T00:18:08.838Z,14.22
2018-05-06T00:19:08.832Z,14.25
2018-05-06T00:20:08.828Z,14.17
2018-05-06T00:21:08.797Z,14.21
2018-05-06T00:22:08.783Z,14.24
2018-05-06T00:23:08.775Z,14.15
2018-05-06T00:24:08.756Z,14.14
2018-05-06T00:25:08.757Z,14.18
2018-05-06T00:26:08.729Z,14.17
2018-05-06T00:27:08.728Z,14.20
2018-05-06T00:28:08.699Z,14.04
2018-05-06T00:29:08.684Z,14.09
2018-05-06T00:30:08.686Z,14.15
2018-05-06T00:31:08.662Z,14.10
2018-05-06T00:32:08.660Z,14.06
2018-05-06T00:33:08.632Z,14.14
2018-05-06T00:34:08.621Z,14.07
2018-05-06T00:35:08.619Z,13.99
2018-05-06T00:36:08.591Z,13.92
2018-05-06T00:37:08.575Z,13.99
2018-05-06T00:38:08.562Z,13.99
2018-05-06T00:39:08.547Z,13.97
2018-05-06T00:40:08.535Z,13.89
2018-05-06T00:41:08.534Z,13.82
2018-05-06T00:42:08.505Z,13.82
2018-05-06T00:43:08.493Z,13.64
2018-05-06T00:44:08.492Z,13.71
2018-05-06T00:45:08.461Z,13.59
2018-05-06T00:46:08.448Z,13.48
2018-05-06T00:47:08.435Z,13.33
2018-05-06T00:48:08.438Z,13.17
2018-05-06T00:49:08.411Z,13.14
2018-05-06T00:50:08.394Z,13.17
2018-05-06T00:51:08.392Z,13.26
2018-05-06T00:52:08.369Z,13.10
2018-05-06T00:53:08.371Z,13.11
2018-05-06T00:54:08.338Z,13.03
2018-05-06T00:55:08.327Z,13.10
2018-05-06T00:56:08.322Z,13.03
2018-05-06T00:57:08.298Z,12.93
2018-05-06T00:58:08.298Z,12.90
2018-05-06T00:59:08.267Z,12.90
2018-05-06T01:00:08.256Z,12.86
2018-05-06T01:01:08.240Z,12.87
2018-05-06T01:02:08.223Z,12.89
2018-05-06T01:03:08.212Z,12.86
2018-05-06T01:04:08.211Z,12.90
2018-05-06T01:05:08.182Z,12.96
2018-05-06T01:06:08.168Z,12.93
2018-05-06T01:07:08.154Z,12.92
2018-05-06T01:08:08.143Z,12.93
2018-05-06T01:09:08.148Z,12.96
2018-05-06T01:10:08.112Z,13.05
2018-05-06T01:11:08.099Z,12.97
2018-05-06T01:12:08.089Z,13.01
2018-05-06T01:13:08.075Z,13.03
2018-05-06T01:14:08.057Z,13.10
2018-05-06T01:15:08.058Z,13.00
2018-05-06T01:16:08.023Z,13.11
2018-05-06T01:17:08.012Z,13.10
2018-05-06T01:18:07.998Z,13.08
2018-05-06T01:19:07.987Z,12.95
2018-05-06T01:20:07.967Z,12.90
2018-05-06T01:21:07.972Z,12.86
2018-05-06T01:22:07.938Z,12.87
2018-05-06T01:23:07.931Z,12.89
2018-05-06T01:24:07.909Z,12.87
2018-05-06T01:25:07.900Z,12.71
2018-05-06T01:26:07.882Z,12.75
2018-05-06T01:27:07.884Z,12.77
2018-05-06T01:28:07.860Z,12.79
2018-05-06T01:29:07.843Z,12.68
2018-05-06T01:30:07.823Z,12.67
2018-05-06T01:31:07.816Z,12.68
2018-05-06T01:32:07.801Z,12.64
2018-05-06T01:33:07.798Z,12.57
2018-05-06T01:34:07.769Z,12.67
2018-05-06T01:35:07.756Z,12.54
2018-05-06T01:36:07.752Z,12.59
2018-05-06T01:37:07.737Z,12.59
2018-05-06T01:38:07.710Z,12.59
2018-05-06T01:39:07.697Z,12.57
2018-05-06T01:40:07.684Z,12.49
2018-05-06T01:41:07.666Z,12.57
2018-05-06T01:42:07.663Z,12.42
2018-05-06T01:43:07.638Z,12.52
2018-05-06T01:44:07.625Z,12.52
2018-05-06T01:45:07.610Z,12.54
2018-05-06T01:46:07.600Z,12.52
2018-05-06T01:47:07.597Z,12.57
2018-05-06T01:48:07.586Z,12.53
2018-05-06T01:49:07.555Z,12.56
2018-05-06T01:50:07.539Z,12.62
2018-05-06T01:51:07.525Z,12.57
2018-05-06T01:52:07.508Z,12.67
2018-05-06T01:53:07.495Z,12.67
2018-05-06T01:54:07.494Z,12.62
2018-05-06T01:55:07.467Z,12.64
2018-05-06T01:56:07.452Z,12.79
2018-05-06T01:57:07.442Z,12.77
2018-05-06T01:58:07.422Z,12.78
2018-05-06T01:59:07.406Z,12.74
2018-05-06T02:00:07.407Z,12.77
2018-05-06T02:01:07.376Z,12.82
2018-05-06T02:02:07.361Z,12.78
2018-05-06T02:03:07.364Z,12.74
2018-05-06T02:04:07.344Z,12.75
2018-05-06T02:05:07.320Z,12.75
2018-05-06T02:06:07.303Z,12.77
2018-05-06T02:07:07.290Z,12.75
2018-05-06T02:08:07.284Z,12.79
2018-05-06T02:09:07.277Z,12.78
2018-05-06T02:10:07.246Z,12.67
2018-05-06T02:11:07.232Z,12.65
2018-05-06T02:12:07.219Z,12.57
2018-05-06T02:13:07.204Z,12.53
2018-05-06T02:14:07.189Z,12.54
2018-05-06T02:15:07.190Z,12.54
2018-05-06T02:16:07.160Z,12.46
2018-05-06T02:17:07.144Z,12.45
2018-05-06T02:18:07.130Z,12.42
2018-05-06T02:19:07.118Z,12.38
2018-05-06T02:20:07.115Z,12.31
2018-05-06T02:21:07.088Z,12.21
2018-05-06T02:22:07.085Z,12.17
2018-05-06T02:23:07.059Z,12.21
2018-05-06T02:24:07.044Z,12.10
2018-05-06T02:25:07.045Z,12.12
2018-05-06T02:26:07.013Z,12.02
2018-05-06T02:27:06.999Z,12.05
2018-05-06T02:28:06.984Z,12.12
2018-05-06T02:29:06.975Z,12.04
2018-05-06T02:30:06.964Z,11.96
2018-05-06T02:31:06.941Z,11.96
2018-05-06T02:32:06.926Z,11.90
2018-05-06T02:33:06.910Z,11.88
2018-05-06T02:34:06.894Z,11.98
2018-05-06T02:35:06.907Z,11.96
2018-05-06T02:36:06.871Z,11.95
2018-05-06T02:37:06.860Z,11.95
2018-05-06T02:38:06.838Z,12.02
2018-05-06T02:39:06.823Z,12.05
2018-05-06T02:40:06.808Z,12.02
2018-05-06T02:41:06.802Z,12.05
2018-05-06T02:42:06.777Z,12.05
2018-05-06T02:43:06.761Z,12.10
2018-05-06T02:44:06.749Z,12.07
2018-05-06T02:45:06.733Z,12.04
2018-05-06T02:46:06.731Z,12.05
2018-05-06T02:47:06.702Z,12.05
2018-05-06T02:48:06.689Z,12.10
2018-05-06T02:49:06.674Z,12.01
2018-05-06T02:50:06.657Z,12.05
2018-05-06T02:51:06.657Z,12.04
2018-05-06T02:52:06.635Z,12.04
2018-05-06T02:53:06.634Z,11.99
2018-05-06T02:54:06.599Z,11.98
2018-05-06T02:55:06.586Z,11.91
2018-05-06T02:56:06.585Z,11.79
2018-05-06T02:57:06.552Z,11.70
2018-05-06T02:58:06.540Z,11.60
2018-05-06T02:59:06.583Z,11.65
2018-05-06T03:00:06.509Z,11.43
2018-05-06T03:01:06.492Z,11.47
2018-05-06T03:02:06.495Z,11.44
2018-05-06T03:03:06.466Z,11.47
2018-05-06T03:04:06.450Z,11.43
2018-05-06T03:05:06.435Z,11.40
2018-05-06T03:06:06.420Z,11.46
2018-05-06T03:07:06.427Z,11.36
2018-05-06T03:08:06.389Z,11.35
2018-05-06T03:09:06.376Z,11.28
2018-05-06T03:10:06.361Z,11.27
2018-05-06T03:11:06.344Z,11.24
2018-05-06T03:12:06.333Z,11.21
2018-05-06T03:13:06.331Z,11.14
2018-05-06T03:14:06.302Z,11.17
2018-05-06T03:15:06.283Z,11.09
2018-05-06T03:16:06.269Z,11.11
2018-05-06T03:17:06.253Z,10.97
2018-05-06T03:18:06.255Z,10.91
2018-05-06T03:19:06.225Z,10.89
2018-05-06T03:20:06.212Z,10.96
2018-05-06T03:21:06.196Z,10.91
2018-05-06T03:22:06.175Z,10.89
2018-05-06T03:23:06.188Z,10.84
2018-05-06T03:24:06.148Z,10.92
2018-05-06T03:25:06.133Z,11.02
2018-05-06T03:26:06.117Z,11.02
2018-05-06T03:27:06.105Z,11.07
2018-05-06T03:28:06.089Z,11.14
2018-05-06T03:29:06.092Z,11.04
2018-05-06T03:30:06.055Z,11.11
2018-05-06T03:31:06.044Z,11.17
2018-05-06T03:32:06.029Z,11.10
2018-05-06T03:33:06.023Z,11.15
2018-05-06T03:34:05.997Z,11.07
2018-05-06T03:35:05.986Z,11.14
2018-05-06T03:36:05.985Z,11.17
2018-05-06T03:37:05.953Z,11.15
2018-05-06T03:38:05.935Z,11.17
2018-05-06T03:39:05.934Z,11.17
2018-05-06T03:40:05.904Z,11.07
2018-05-06T03:41:05.902Z,11.07
2018-05-06T03:42:05.875Z,11.15
2018-05-06T03:43:05.858Z,11.19
2018-05-06T03:44:05.845Z,11.09
2018-05-06T03:45:05.839Z,11.15
2018-05-06T03:46:05.812Z,11.17
2018-05-06T03:47:05.796Z,11.18
2018-05-06T03:48:05.783Z,11.15
2018-05-06T03:49:05.768Z,11.07
2018-05-06T03:50:05.765Z,11.17
2018-05-06T03:51:05.750Z,11.14
2018-05-06T03:52:05.741Z,11.04
2018-05-06T03:53:05.707Z,11.17
2018-05-06T03:54:05.690Z,11.14
2018-05-06T03:55:05.675Z,11.04
2018-05-06T03:56:05.659Z,11.10
2018-05-06T03:57:05.645Z,11.04
2018-05-06T03:58:05.648Z,10.94
2018-05-06T03:59:05.612Z,10.99
2018-05-06T04:00:05.599Z,11.03
2018-05-06T04:01:05.594Z,11.04
2018-05-06T04:02:05.597Z,11.04
2018-05-06T04:03:05.571Z,11.02
2018-05-06T04:04:05.537Z,11.14
2018-05-06T04:05:05.523Z,11.17
2018-05-06T04:06:05.502Z,11.17
2018-05-06T04:07:05.490Z,11.18
2018-05-06T04:08:05.493Z,11.18
2018-05-06T04:09:05.463Z,11.14
2018-05-06T04:10:05.446Z,11.24
2018-05-06T04:11:05.428Z,11.22
2018-05-06T04:12:05.429Z,11.28
2018-05-06T04:13:05.415Z,11.25
2018-05-06T04:14:05.378Z,11.33
2018-05-06T04:15:05.368Z,11.29
2018-05-06T04:16:05.349Z,11.46
2018-05-06T04:17:05.351Z,11.28
2018-05-06T04:18:05.331Z,11.49
2018-05-06T04:19:05.323Z,11.43
2018-05-06T04:20:05.290Z,11.57
2018-05-06T04:21:05.276Z,11.72
2018-05-06T04:22:05.263Z,11.83
2018-05-06T04:23:05.244Z,11.91
2018-05-06T04:24:05.241Z,12.12
2018-05-06T04:25:05.212Z,12.16
2018-05-06T04:26:05.199Z,12.24
2018-05-06T04:27:05.185Z,12.31
2018-05-06T04:28:05.168Z,12.41
2018-05-06T04:29:05.168Z,12.65
2018-05-06T04:30:05.137Z,12.71
2018-05-06T04:31:05.137Z,12.85
2018-05-06T04:32:05.108Z,12.92
2018-05-06T04:33:05.095Z,12.95
2018-05-06T04:34:05.079Z,13.04
2018-05-06T04:35:05.067Z,13.00
2018-05-06T04:36:05.065Z,13.10
2018-05-06T04:37:05.038Z,12.97
2018-05-06T04:38:05.017Z,13.01
2018-05-06T04:39:05.007Z,13.05
2018-05-06T04:40:04.990Z,13.03
2018-05-06T04:41:04.992Z,12.93
2018-05-06T04:42:04.960Z,12.87
2018-05-06T04:43:04.946Z,12.79
2018-05-06T04:44:04.932Z,12.70
2018-05-06T04:45:04.922Z,12.70
2018-05-06T04:46:04.903Z,12.53
2018-05-06T04:47:04.903Z,12.54
2018-05-06T04:48:04.885Z,12.52
2018-05-06T04:49:04.859Z,12.54
2018-05-06T04:50:04.858Z,12.59
2018-05-06T04:51:04.833Z,12.45
2018-05-06T04:52:04.817Z,12.54
2018-05-06T04:53:04.801Z,12.54
2018-05-06T04:54:04.784Z,12.65
2018-05-06T04:55:04.771Z,12.67
2018-05-06T04:56:04.772Z,12.56
2018-05-06T04:57:04.742Z,12.56
2018-05-06T04:58:04.743Z,12.64
2018-05-06T04:59:04.713Z,12.74
2018-05-06T05:00:04.698Z,12.72
2018-05-06T05:01:04.685Z,12.79
2018-05-06T05:02:04.668Z,12.83
2018-05-06T05:03:04.670Z,12.79
2018-05-06T05:04:04.645Z,12.85
2018-05-06T05:05:04.628Z,12.86
2018-05-06T05:06:04.611Z,12.85
2018-05-06T05:07:04.596Z,12.87
2018-05-06T05:08:04.596Z,12.85
2018-05-06T05:09:04.568Z,12.87
2018-05-06T05:10:04.566Z,12.92
2018-05-06T05:11:04.541Z,12.93
2018-05-06T05:12:04.523Z,13.01
2018-05-06T05:13:04.510Z,13.05
2018-05-06T05:14:04.494Z,13.14
2018-05-06T05:15:04.496Z,13.17
2018-05-06T05:16:04.485Z,13.14
2018-05-06T05:17:04.450Z,13.17
2018-05-06T05:18:04.438Z,13.32
2018-05-06T05:19:04.420Z,13.32
2018-05-06T05:20:04.405Z,13.41
2018-05-06T05:21:04.409Z,13.45
2018-05-06T05:22:04.378Z,13.55
2018-05-06T05:23:04.360Z,13.71
2018-05-06T05:24:04.349Z,13.69
2018-05-06T05:25:04.333Z,13.66
2018-05-06T05:26:04.333Z,13.71
2018-05-06T05:27:04.322Z,13.78
2018-05-06T05:28:04.292Z,13.67
2018-05-06T05:29:04.277Z,13.67
2018-05-06T05:30:04.266Z,13.75
2018-05-06T05:31:04.252Z,13.63
2018-05-06T05:32:04.250Z,13.63
2018-05-06T05:33:04.221Z,13.66
2018-05-06T05:34:04.221Z,13.62
2018-05-06T05:35:04.194Z,13.59
2018-05-06T05:36:04.177Z,13.75
2018-05-06T05:37:04.181Z,13.66
2018-05-06T05:38:04.151Z,13.71
2018-05-06T05:39:04.136Z,13.75
2018-05-06T05:40:04.117Z,13.79
2018-05-06T05:41:04.112Z,13.91
2018-05-06T05:42:04.110Z,13.99
2018-05-06T05:43:04.080Z,14.04
2018-05-06T05:44:04.084Z,14.18
2018-05-06T05:45:04.053Z,14.20
2018-05-06T05:46:04.038Z,14.28
2018-05-06T05:47:04.038Z,14.43
2018-05-06T05:48:04.026Z,14.46
2018-05-06T05:49:03.997Z,14.54
2018-05-06T05:50:03.982Z,14.60
2018-05-06T05:51:03.965Z,14.73
2018-05-06T05:52:03.956Z,14.88
2018-05-06T05:53:03.942Z,14.84
2018-05-06T05:54:03.944Z,14.99
2018-05-06T05:55:03.912Z,15.07
2018-05-06T05:56:03.900Z,15.03
2018-05-06T05:57:03.891Z,15.09
2018-05-06T05:58:03.887Z,15.16
2018-05-06T05:59:03.857Z,15.27
2018-05-06T06:00:03.860Z,15.34
2018-05-06T06:01:03.834Z,15.34
2018-05-06T06:02:03.819Z,15.47
2018-05-06T06:03:03.804Z,15.59
2018-05-06T06:04:03.810Z,15.59
2018-05-06T06:05:03.775Z,15.67
2018-05-06T06:06:03.761Z,15.68
2018-05-06T06:07:03.752Z,15.72
2018-05-06T06:08:03.738Z,15.83
2018-05-06T06:09:03.738Z,15.76
2018-05-06T06:10:03.711Z,15.78
2018-05-06T06:11:03.698Z,15.90
2018-05-06T06:12:03.685Z,15.87
2018-05-06T06:13:03.675Z,15.90
2018-05-06T06:14:03.682Z,15.96
2018-05-06T06:15:03.657Z,15.93
2018-05-06T06:16:03.629Z,16.04
2018-05-06T06:17:03.618Z,16.05
2018-05-06T06:18:03.608Z,16.21
2018-05-06T06:19:03.590Z,16.08
2018-05-06T06:20:03.594Z,16.12
2018-05-06T06:21:03.566Z,16.28
2018-05-06T06:22:03.585Z,16.31
2018-05-06T06:23:03.544Z,16.31
2018-05-06T06:24:03.528Z,16.27
2018-05-06T06:25:03.527Z,16.28
2018-05-06T06:26:03.499Z,16.35
2018-05-06T06:27:03.490Z,16.38
2018-05-06T06:28:03.489Z,16.41
2018-05-06T06:29:03.462Z,16.43
2018-05-06T06:30:03.447Z,16.57
2018-05-06T06:31:03.434Z,16.45
2018-05-06T06:32:03.424Z,16.56
2018-05-06T06:33:03.506Z,16.58
2018-05-06T06:34:03.396Z,16.64
2018-05-06T06:35:03.387Z,16.61
2018-05-06T06:36:03.371Z,16.76
2018-05-06T06:37:03.358Z,16.75
2018-05-06T06:38:03.346Z,16.88
2018-05-06T06:39:03.348Z,16.88
2018-05-06T06:40:03.320Z,17.00
2018-05-06T06:41:03.307Z,16.97
2018-05-06T06:42:03.295Z,17.15
2018-05-06T06:43:03.282Z,17.15
2018-05-06T06:44:03.271Z,17.08
2018-05-06T06:45:03.275Z,17.15
2018-05-06T06:46:04.303Z,17.11
2018-05-06T06:47:03.249Z,17.15
2018-05-06T06:48:03.246Z,17.16
2018-05-06T06:49:03.208Z,17.26
2018-05-06T06:50:03.197Z,17.25
2018-05-06T06:51:03.201Z,17.41
2018-05-06T06:52:03.177Z,17.40
2018-05-06T06:53:03.155Z,17.51
2018-05-06T06:54:03.141Z,17.64
2018-05-06T06:55:03.148Z,17.49
2018-05-06T06:56:03.119Z,17.44
2018-05-06T06:57:03.103Z,17.41
2018-05-06T06:58:03.094Z,17.44
2018-05-06T06:59:03.080Z,17.49
2018-05-06T07:00:03.069Z,17.48
2018-05-06T07:01:03.075Z,17.54
2018-05-06T07:02:03.046Z,17.63
2018-05-06T07:03:03.028Z,17.77
2018-05-06T07:04:03.019Z,17.84
2018-05-06T07:05:03.027Z,17.90
2018-05-06T07:06:02.991Z,17.82
2018-05-06T07:07:02.980Z,17.96
2018-05-06T07:08:02.972Z,17.93
2018-05-06T07:09:02.956Z,18.00
2018-05-06T07:10:02.960Z,18.18
2018-05-06T07:11:02.929Z,18.29
2018-05-06T07:12:02.921Z,18.30
2018-05-06T07:13:02.913Z,18.33
2018-05-06T07:14:02.897Z,18.45
2018-05-06T07:15:02.970Z,18.47
2018-05-06T07:16:02.873Z,18.58
2018-05-06T07:17:02.858Z,18.62
2018-05-06T07:18:02.920Z,18.52
2018-05-06T07:19:02.836Z,18.52
2018-05-06T07:20:02.825Z,18.35
2018-05-06T07:21:02.813Z,18.18
2018-05-06T07:22:02.815Z,18.17
2018-05-06T07:23:02.794Z,18.17
2018-05-06T07:24:02.777Z,18.36
2018-05-06T07:25:02.767Z,18.50
2018-05-06T07:26:02.766Z,18.57
2018-05-06T07:27:02.741Z,18.58
2018-05-06T07:28:02.728Z,18.70
2018-05-06T07:29:02.730Z,18.81
2018-05-06T07:30:02.706Z,18.81
2018-05-06T07:31:02.711Z,18.84
2018-05-06T07:32:02.681Z,18.94
2018-05-06T07:33:02.691Z,18.95
2018-05-06T07:34:02.658Z,19.00
2018-05-06T07:35:02.647Z,19.08
2018-05-06T07:36:02.634Z,19.19
2018-05-06T07:37:02.635Z,19.06
2018-05-06T07:38:02.613Z,18.98
2018-05-06T07:39:02.600Z,18.84
2018-05-06T07:40:02.597Z,18.78
2018-05-06T07:41:02.602Z,18.76
2018-05-06T07:42:02.599Z,18.87
2018-05-06T07:43:02.552Z,19.07
2018-05-06T07:44:02.543Z,19.16
2018-05-06T07:45:02.530Z,19.23
2018-05-06T07:46:02.519Z,19.11
2018-05-06T07:47:02.501Z,18.99
2018-05-06T07:48:02.504Z,18.95
2018-05-06T07:49:02.566Z,18.84
2018-05-06T07:50:02.469Z,18.81
2018-05-06T07:51:02.459Z,18.94
2018-05-06T07:52:02.447Z,19.07
2018-05-06T07:53:02.452Z,19.21
2018-05-06T07:54:02.425Z,19.25
2018-05-06T07:55:02.412Z,19.33
2018-05-06T07:56:02.400Z,19.41
2018-05-06T07:57:02.389Z,19.50
2018-05-06T07:58:02.380Z,19.55
2018-05-06T07:59:02.382Z,19.73
2018-05-06T08:00:02.367Z,19.80
2018-05-06T08:01:02.344Z,19.84
2018-05-06T08:02:02.328Z,19.81
2018-05-06T08:03:02.322Z,19.91
2018-05-06T08:04:02.309Z,19.96
2018-05-06T08:05:02.312Z,20.01
2018-05-06T08:06:02.287Z,20.08
2018-05-06T08:07:02.276Z,20.06
2018-05-06T08:08:02.267Z,20.01
2018-05-06T08:09:02.292Z,19.86
2018-05-06T08:10:02.252Z,19.91
2018-05-06T08:11:02.249Z,19.76
2018-05-06T08:12:02.221Z,19.76
2018-05-06T08:13:02.206Z,19.81
2018-05-06T08:14:02.196Z,19.88
2018-05-06T08:15:02.183Z,19.81
2018-05-06T08:16:02.172Z,19.91
2018-05-06T08:17:02.191Z,19.96
2018-05-06T08:18:02.151Z,20.06
2018-05-06T08:19:02.139Z,20.20
2018-05-06T08:20:02.130Z,20.36
2018-05-06T08:21:02.119Z,20.38
2018-05-06T08:22:02.126Z,20.50
2018-05-06T08:23:02.092Z,20.57
2018-05-06T08:24:02.083Z,20.48
2018-05-06T08:25:02.074Z,20.36
2018-05-06T08:26:02.066Z,20.10
2018-05-06T08:27:02.061Z,20.26
2018-05-06T08:28:02.041Z,20.24
2018-05-06T08:29:02.030Z,20.38
2018-05-06T08:30:02.019Z,20.51
2018-05-06T08:31:02.051Z,20.61
2018-05-06T08:32:02.006Z,20.69
2018-05-06T08:33:02.002Z,20.79
2018-05-06T08:34:01.976Z,20.92
2018-05-06T08:35:01.961Z,20.99
2018-05-06T08:36:01.950Z,21.09
2018-05-06T08:37:01.942Z,20.94
2018-05-06T08:38:01.929Z,20.92
2018-05-06T08:39:01.941Z,21.04
2018-05-06T08:40:01.909Z,21.24
2018-05-06T08:41:01.933Z,21.22
2018-05-06T08:42:01.888Z,21.35
2018-05-06T08:43:01.877Z,21.59
2018-05-06T08:44:01.877Z,21.71
2018-05-06T08:45:01.859Z,21.84
2018-05-06T08:46:01.842Z,22.02
2018-05-06T08:47:01.833Z,22.10
2018-05-06T08:48:01.837Z,22.31
2018-05-06T08:49:01.849Z,22.45
2018-05-06T08:50:01.798Z,22.54
2018-05-06T08:51:01.792Z,22.67
2018-05-06T08:52:01.784Z,22.72
2018-05-06T08:53:01.765Z,22.91
2018-05-06T08:54:01.761Z,23.00
2018-05-06T08:55:01.767Z,23.12
2018-05-06T08:56:01.742Z,23.22
2018-05-06T08:57:01.733Z,23.51
2018-05-06T08:58:01.716Z,23.72
2018-05-06T08:59:01.729Z,24.24
2018-05-06T09:00:01.720Z,24.43
2018-05-06T09:01:01.715Z,24.77
2018-05-06T09:02:01.699Z,25.27
2018-05-06T09:03:01.671Z,25.91
2018-05-06T09:04:01.693Z,26.21
2018-05-06T09:05:01.654Z,26.18
2018-05-06T09:06:01.643Z,26.47
2018-05-06T09:07:01.651Z,26.88
2018-05-06T09:08:01.638Z,27.12
2018-05-06T09:09:01.617Z,27.37
2018-05-06T09:10:01.636Z,27.54
2018-05-06T09:11:01.629Z,27.81
2018-05-06T09:12:01.585Z,27.84
2018-05-06T09:13:01.580Z,28.04
2018-05-06T09:14:01.567Z,28.37
2018-05-06T09:15:01.556Z,28.41
2018-05-06T09:16:01.566Z,28.55
2018-05-06T09:17:01.553Z,28.64
2018-05-06T09:18:01.531Z,28.78
2018-05-06T09:19:01.522Z,28.85
2018-05-06T09:20:01.534Z,29.00
2018-05-06T09:21:01.504Z,29.23
2018-05-06T09:22:01.494Z,29.27
2018-05-06T09:23:01.487Z,29.37
2018-05-06T09:24:01.481Z,29.39
2018-05-06T09:25:01.485Z,29.83
2018-05-06T09:26:01.463Z,29.92
2018-05-06T09:27:01.456Z,30.23
2018-05-06T09:28:01.456Z,30.47
2018-05-06T09:29:01.442Z,30.69
2018-05-06T09:30:01.445Z,30.91
2018-05-06T09:31:01.423Z,30.73
2018-05-06T09:32:01.421Z,30.82
2018-05-06T09:33:01.426Z,30.79
2018-05-06T09:34:01.406Z,30.67
2018-05-06T09:35:01.401Z,30.46
2018-05-06T09:36:01.394Z,30.17
2018-05-06T09:37:01.392Z,30.17
2018-05-06T09:38:01.411Z,30.32
2018-05-06T09:39:01.383Z,30.43
2018-05-06T09:40:01.378Z,30.54
2018-05-06T09:41:01.381Z,30.10
2018-05-06T09:42:01.376Z,30.45
2018-05-06T09:43:01.375Z,30.45
2018-05-06T09:44:01.381Z,30.49
2018-05-06T09:45:01.380Z,30.32
2018-05-06T09:46:01.363Z,30.42
2018-05-06T09:47:01.365Z,30.46
2018-05-06T09:48:01.362Z,30.43
2018-05-06T09:49:01.358Z,30.47
2018-05-06T09:50:01.372Z,30.57
2018-05-06T09:51:01.374Z,30.46
2018-05-06T09:52:01.356Z,30.32
2018-05-06T09:53:01.356Z,30.23
2018-05-06T09:54:01.354Z,30.16
2018-05-06T09:55:01.359Z,30.27
2018-05-06T09:56:01.354Z,29.78
2018-05-06T09:57:01.374Z,30.04
2018-05-06T09:58:01.355Z,30.29
2018-05-06T09:59:01.365Z,30.49
2018-05-06T10:00:01.357Z,30.86
2018-05-06T10:01:01.371Z,30.64
2018-05-06T10:02:01.355Z,30.58
2018-05-06T10:03:01.354Z,30.77
2018-05-06T10:04:01.358Z,30.77
2018-05-06T10:05:01.357Z,30.62
2018-05-06T10:06:01.377Z,30.89
2018-05-06T10:07:01.377Z,31.06
2018-05-06T10:08:01.362Z,31.39
2018-05-06T10:09:01.363Z,31.47
2018-05-06T10:10:01.363Z,31.54
2018-05-06T10:11:01.371Z,31.84
2018-05-06T10:12:01.383Z,31.88
2018-05-06T10:13:01.371Z,31.76
2018-05-06T10:14:01.373Z,31.69
2018-05-06T10:15:01.376Z,31.81
2018-05-06T10:16:01.378Z,31.91
2018-05-06T10:17:01.408Z,31.73
2018-05-06T10:18:01.385Z,32.10
2018-05-06T10:19:01.386Z,32.26
2018-05-06T10:20:01.386Z,32.23
2018-05-06T10:21:01.389Z,32.44
2018-05-06T10:22:01.395Z,32.32
2018-05-06T10:23:01.406Z,32.06
2018-05-06T10:24:01.398Z,31.80
2018-05-06T10:25:01.412Z,31.62
2018-05-06T10:26:02.936Z,31.69
2018-05-06T10:27:01.408Z,31.99
2018-05-06T10:28:01.445Z,32.14
2018-05-06T10:29:01.438Z,32.22
2018-05-06T10:30:01.418Z,32.25
2018-05-06T10:31:01.421Z,32.29
2018-05-06T10:32:01.436Z,32.10
2018-05-06T10:33:01.428Z,32.21
2018-05-06T10:34:01.433Z,32.18
2018-05-06T10:36:33.499Z,32.07
2018-05-06T10:37:33.500Z,32.11
2018-05-06T10:38:33.520Z,31.92
2018-05-06T10:39:33.495Z,31.84
2018-05-06T10:40:33.513Z,31.91
2018-05-06T10:41:33.506Z,32.00
2018-05-06T10:42:33.509Z,31.65
2018-05-06T10:43:33.509Z,31.72
2018-05-06T10:44:33.599Z,31.70
2018-05-06T10:45:33.533Z,31.70
2018-05-06T10:46:33.526Z,31.65
2018-05-06T10:47:33.526Z,31.61
2018-05-06T10:48:33.536Z,31.72
2018-05-06T10:49:33.534Z,32.15
2018-05-06T10:50:33.553Z,31.91
2018-05-06T10:51:33.550Z,32.04
2018-05-06T10:52:33.550Z,32.23
2018-05-06T10:53:33.555Z,32.04
2018-05-06T10:54:33.563Z,31.85
2018-05-06T10:55:33.584Z,31.92
2018-05-06T10:56:33.591Z,32.04
2018-05-06T10:57:33.571Z,32.06
2018-05-06T10:58:33.579Z,32.14
2018-05-06T10:59:33.585Z,32.28
2018-05-06T11:00:33.584Z,32.14
2018-05-06T11:01:33.608Z,32.44
2018-05-06T11:02:33.610Z,32.08
2018-05-06T11:03:33.601Z,32.11
2018-05-06T11:04:33.604Z,32.14
2018-05-06T11:05:33.611Z,32.38
2018-05-06T11:06:33.615Z,32.44
2018-05-06T11:07:33.640Z,32.75
2018-05-06T11:08:33.627Z,32.47
2018-05-06T11:09:33.624Z,32.23
2018-05-06T11:10:33.640Z,32.25
2018-05-06T11:11:33.659Z,32.43
2018-05-06T11:12:33.645Z,32.62
2018-05-06T11:13:33.651Z,32.74
2018-05-06T11:14:33.651Z,33.03
2018-05-06T11:15:33.663Z,33.01
2018-05-06T11:16:33.684Z,32.33
2018-05-06T11:17:33.672Z,31.85
2018-05-06T11:18:33.677Z,30.29
2018-05-06T11:19:33.685Z,30.53
2018-05-06T11:20:33.702Z,31.01
2018-05-06T11:21:33.712Z,31.63
2018-05-06T11:22:33.697Z,31.85
2018-05-06T11:23:33.705Z,32.07
2018-05-06T11:24:33.712Z,32.26
2018-05-06T11:25:33.712Z,32.48
2018-05-06T11:26:33.734Z,32.47
2018-05-06T11:27:33.742Z,32.22
2018-05-06T11:28:33.731Z,32.43
2018-05-06T11:29:33.735Z,32.40
2018-05-06T11:30:33.743Z,32.40
2018-05-06T11:31:33.751Z,32.50
2018-05-06T11:32:33.767Z,32.60
2018-05-06T11:33:33.756Z,32.45
2018-05-06T11:34:33.765Z,32.57
2018-05-06T11:35:33.787Z,32.69
2018-05-06T11:36:33.774Z,32.63
2018-05-06T11:37:33.780Z,32.59
2018-05-06T11:38:33.785Z,32.52
2018-05-06T11:39:33.787Z,31.92
2018-05-06T11:40:33.814Z,31.91
2018-05-06T11:41:33.802Z,31.76
2018-05-06T11:42:33.811Z,31.92
2018-05-06T11:43:33.813Z,32.11
2018-05-06T11:44:33.820Z,31.65
2018-05-06T11:45:33.840Z,32.06
2018-05-06T11:46:33.846Z,32.43
2018-05-06T11:47:33.838Z,32.48
2018-05-06T11:48:33.837Z,32.63
2018-05-06T11:49:34.636Z,32.81
2018-05-06T11:50:33.853Z,32.56
2018-05-06T11:51:33.873Z,32.19
2018-05-06T11:52:33.866Z,32.11
2018-05-06T11:53:33.885Z,32.11
2018-05-06T11:54:33.876Z,32.14
2018-05-06T11:55:33.881Z,32.30
2018-05-06T11:56:33.889Z,32.43
2018-05-06T11:57:33.891Z,32.40
2018-05-06T11:58:33.914Z,32.15
2018-05-06T11:59:33.904Z,32.22
2018-05-06T12:00:33.913Z,32.08
2018-05-06T12:01:33.914Z,32.10
2018-05-06T12:02:33.918Z,32.21
2018-05-06T12:03:33.948Z,32.35
2018-05-06T12:04:33.934Z,32.52
2018-05-06T12:05:33.933Z,32.52
2018-05-06T12:06:33.946Z,32.28
2018-05-06T12:07:33.949Z,31.89
2018-05-06T12:08:33.969Z,31.62
2018-05-06T12:09:33.979Z,31.72
2018-05-06T12:10:33.965Z,31.80
2018-05-06T12:11:33.968Z,31.96
2018-05-06T12:12:33.979Z,31.50
2018-05-06T12:13:33.982Z,31.70
2018-05-06T12:14:34.003Z,31.84
2018-05-06T12:15:34.008Z,32.06
2018-05-06T12:16:33.994Z,31.95
2018-05-06T12:17:34.004Z,31.58
2018-05-06T12:18:34.010Z,31.61
2018-05-06T12:19:34.027Z,31.43
2018-05-06T12:20:34.036Z,31.57
2018-05-06T12:21:34.024Z,31.85
2018-05-06T12:22:34.027Z,31.99
2018-05-06T12:23:34.036Z,31.44
2018-05-06T12:24:34.042Z,31.29
2018-05-06T12:25:34.062Z,30.91
2018-05-06T12:26:34.050Z,30.98
2018-05-06T12:27:34.060Z,31.09
2018-05-06T12:28:34.061Z,31.10
2018-05-06T12:29:34.068Z,31.41
2018-05-06T12:30:34.087Z,31.78
2018-05-06T12:31:34.089Z,31.88
2018-05-06T12:32:34.097Z,31.76
2018-05-06T12:33:34.147Z,31.12
2018-05-06T12:34:34.092Z,30.89
2018-05-06T12:35:34.095Z,30.76
2018-05-06T12:36:34.100Z,30.77
2018-05-06T12:37:34.122Z,30.45
2018-05-06T12:38:34.109Z,30.13
2018-05-06T12:39:34.113Z,29.98
2018-05-06T12:40:34.117Z,30.22
2018-05-06T12:41:34.143Z,29.55
2018-05-06T12:42:34.125Z,29.05
2018-05-06T12:43:34.128Z,29.12
2018-05-06T12:44:34.135Z,29.09
2018-05-06T12:45:34.141Z,28.89
2018-05-06T12:46:34.682Z,29.15
2018-05-06T12:47:34.145Z,29.31
2018-05-06T12:48:34.164Z,29.76
2018-05-06T12:49:34.236Z,30.08
2018-05-06T12:50:34.169Z,30.45
2018-05-06T12:51:34.158Z,30.57
2018-05-06T12:52:34.160Z,30.39
2018-05-06T12:53:34.181Z,30.37